Kenton, Ohio
Current Conditions -  °F | °C
As of 8:53 AM on Friday 24 Oct 2014 (Local Time) from KAOH Reporting Station
Haze Haze  
Wind Chill: 39°   Ceiling: Unl
Heat Index: 42°   Visibility: 4mi
Dew Point: 39°   Wind: 5mph
Humidity: 89%   Direction: 180°S
Pressure: 30.11"   Gusts: NA
Location:  40.65°N, 83.61°W
Report Text: KAOH 241253Z AUTO 18004KT 4SM BR CLR 06/04 A3011 RMK AO2 SLP199 T00560039
Loading
Personal Weather Stations






























Interactive Weather Map
Tropical Storm Tracking
New forecast layout! Learn more

10-Day Weather Forecast

Advertisements
Track Severe Weather on mobile